createdAt,value
2018-12-30T00:00:20.299Z,101551.07
2018-12-30T00:02:51.022Z,101563.12
2018-12-30T00:05:20.791Z,101564.17
2018-12-30T00:07:50.635Z,101571.59
2018-12-30T00:10:20.404Z,101567.84
2018-12-30T00:12:49.913Z,101576.23
2018-12-30T00:15:19.773Z,101588.56
2018-12-30T00:17:49.261Z,101582.87
2018-12-30T00:20:18.822Z,101588.28
2018-12-30T00:22:48.252Z,101598.44
2018-12-30T00:25:17.742Z,101600.28
2018-12-30T00:27:47.204Z,101608.36
2018-12-30T00:30:16.686Z,101610.23
2018-12-30T00:32:46.175Z,101607.94
2018-12-30T00:35:15.673Z,101620.31
2018-12-30T00:37:45.160Z,101623.75
2018-12-30T00:40:14.658Z,101624.14
2018-12-30T00:42:44.144Z,101626.27
2018-12-30T00:45:13.630Z,101648.78
2018-12-30T00:47:43.108Z,101650.58
2018-12-30T00:50:12.591Z,101654.98
2018-12-30T00:52:42.070Z,101664.88
2018-12-30T00:55:11.942Z,101666.98
2018-12-30T00:57:41.460Z,101671.16
2018-12-30T01:00:11.070Z,101684.59
2018-12-30T01:02:40.575Z,101688.41
2018-12-30T01:05:10.164Z,101688.73
2018-12-30T01:07:39.939Z,101706.65
2018-12-30T01:10:09.429Z,101716.91
2018-12-30T01:12:38.925Z,101717.61
2018-12-30T01:15:08.423Z,101736.52
2018-12-30T01:17:37.877Z,101750.18
2018-12-30T01:20:08.324Z,101757.61
2018-12-30T01:22:37.821Z,101758.47
2018-12-30T01:25:07.415Z,101786.84
2018-12-30T01:27:36.886Z,101786.63
2018-12-30T01:30:06.865Z,101793.63
2018-12-30T01:32:36.334Z,101810.81
2018-12-30T01:35:05.878Z,101809.15
2018-12-30T01:37:36.320Z,101814.64
2018-12-30T01:40:05.830Z,101825.03
2018-12-30T01:42:35.310Z,101818.80
2018-12-30T01:45:04.942Z,101814.09
2018-12-30T01:47:34.414Z,101840.14
2018-12-30T01:50:04.103Z,101845.84
2018-12-30T01:52:33.597Z,101850.02
2018-12-30T01:55:03.120Z,101855.23
2018-12-30T01:57:32.589Z,101858.50
2018-12-30T02:00:02.065Z,101868.44
2018-12-30T02:02:33.418Z,101875.52
2018-12-30T02:05:04.092Z,101894.03
2018-12-30T02:07:33.562Z,101884.50
2018-12-30T02:10:03.147Z,101897.22
2018-12-30T02:12:32.605Z,101902.56
2018-12-30T02:15:02.094Z,101908.33
2018-12-30T02:17:31.646Z,101895.41
2018-12-30T02:20:01.200Z,101922.14
2018-12-30T02:22:31.049Z,101926.52
2018-12-30T02:25:00.526Z,101934.91
2018-12-30T02:27:30.009Z,101925.13
2018-12-30T02:29:59.515Z,101934.82
2018-12-30T02:32:29.983Z,101935.93
2018-12-30T02:34:59.744Z,101950.37
2018-12-30T02:37:29.262Z,101948.80
2018-12-30T02:39:58.753Z,101960.52
2018-12-30T02:42:28.220Z,101962.97
2018-12-30T02:44:57.688Z,101955.52
2018-12-30T02:47:27.183Z,101967.37
2018-12-30T02:49:56.670Z,101973.63
2018-12-30T02:52:26.154Z,101975.30
2018-12-30T02:54:55.637Z,101980.27
2018-12-30T02:57:25.139Z,101976.00
2018-12-30T02:59:54.634Z,101988.76
2018-12-30T03:02:24.160Z,101990.83
2018-12-30T03:04:53.679Z,101990.76
2018-12-30T03:07:23.178Z,101999.47
2018-12-30T03:09:52.921Z,102003.42
2018-12-30T03:12:22.401Z,102000.08
2018-12-30T03:14:51.891Z,101999.25
2018-12-30T03:17:21.432Z,102000.47
2018-12-30T03:19:50.898Z,102017.05
2018-12-30T03:22:20.391Z,102014.91
2018-12-30T03:24:49.870Z,102006.09
2018-12-30T03:27:19.362Z,102018.55
2018-12-30T03:29:48.848Z,102026.30
2018-12-30T03:32:18.349Z,102028.25
2018-12-30T03:34:47.831Z,102032.20
2018-12-30T03:37:17.340Z,102039.33
2018-12-30T03:39:46.821Z,102047.84
2018-12-30T03:42:16.299Z,102047.59
2018-12-30T03:44:45.777Z,102045.69
2018-12-30T03:47:15.262Z,102052.30
2018-12-30T03:49:44.751Z,102061.28
2018-12-30T03:52:14.337Z,102066.52
2018-12-30T03:54:43.818Z,102074.52
2018-12-30T03:57:13.316Z,102073.35
2018-12-30T03:59:43.773Z,102072.40
2018-12-30T04:02:13.263Z,102067.94
2018-12-30T04:04:42.837Z,102070.00
2018-12-30T04:07:12.333Z,102077.23
2018-12-30T04:09:41.806Z,102087.84
2018-12-30T04:12:11.279Z,102082.92
2018-12-30T04:14:40.749Z,102096.61
2018-12-30T04:17:10.235Z,102102.94
2018-12-30T04:19:39.785Z,102107.83
2018-12-30T04:22:16.653Z,102107.92
2018-12-30T04:24:40.428Z,102110.31
2018-12-30T04:27:09.905Z,102109.87
2018-12-30T04:29:39.380Z,102123.89
2018-12-30T04:32:08.861Z,102121.88
2018-12-30T04:34:38.340Z,102118.80
2018-12-30T04:37:07.832Z,102121.46
2018-12-30T04:39:37.329Z,102128.98
2018-12-30T04:42:06.836Z,102137.40
2018-12-30T04:44:36.331Z,102141.54
2018-12-30T04:47:05.836Z,102143.27
2018-12-30T04:49:35.329Z,102153.13
2018-12-30T04:52:04.854Z,102163.40
2018-12-30T04:54:34.334Z,102173.18
2018-12-30T04:57:03.809Z,102164.69
2018-12-30T04:59:33.314Z,102180.44
2018-12-30T05:02:02.824Z,102189.72
2018-12-30T05:04:32.310Z,102200.30
2018-12-30T05:07:01.795Z,102189.42
2018-12-30T05:09:31.292Z,102191.17
2018-12-30T05:12:00.786Z,102204.92
2018-12-30T05:14:30.342Z,102212.78
2018-12-30T05:16:59.863Z,102215.35
2018-12-30T05:19:29.352Z,102217.24
2018-12-30T05:21:59.836Z,102236.50
2018-12-30T05:24:29.310Z,102217.57
2018-12-30T05:26:58.822Z,102232.50
2018-12-30T05:29:28.316Z,102236.27
2018-12-30T05:31:57.817Z,102226.30
2018-12-30T05:34:27.314Z,102227.40
2018-12-30T05:36:56.780Z,102234.17
2018-12-30T05:39:26.279Z,102234.81
2018-12-30T05:41:55.759Z,102235.34
2018-12-30T05:44:25.238Z,102238.30
2018-12-30T05:46:54.726Z,102244.92
2018-12-30T05:49:24.211Z,102249.61
2018-12-30T05:51:53.685Z,102250.00
2018-12-30T05:54:23.183Z,102254.95
2018-12-30T05:56:53.650Z,102259.23
2018-12-30T05:59:23.159Z,102256.70
2018-12-30T06:01:52.651Z,102264.98
2018-12-30T06:04:22.174Z,102260.98
2018-12-30T06:06:51.643Z,102272.12
2018-12-30T06:09:21.152Z,102277.53
2018-12-30T06:11:50.633Z,102273.23
2018-12-30T06:14:20.135Z,102281.34
2018-12-30T06:16:49.639Z,102292.13
2018-12-30T06:19:19.600Z,102284.34
2018-12-30T06:21:49.076Z,102277.44
2018-12-30T06:24:18.569Z,102292.95
2018-12-30T06:26:48.043Z,102303.06
2018-12-30T06:29:17.547Z,102309.01
2018-12-30T06:31:47.032Z,102302.49
2018-12-30T06:34:16.533Z,102305.39
2018-12-30T06:36:46.045Z,102312.64
2018-12-30T06:39:15.564Z,102318.83
2018-12-30T06:41:45.085Z,102319.28
2018-12-30T06:44:14.582Z,102321.25
2018-12-30T06:46:44.766Z,102328.33
2018-12-30T06:49:14.251Z,102160.37
2018-12-30T06:51:43.737Z,102332.79
2018-12-30T06:54:13.293Z,102337.09
2018-12-30T06:56:42.783Z,102338.91
2018-12-30T06:59:12.282Z,102347.66
2018-12-30T07:01:41.762Z,102345.27
2018-12-30T07:04:11.248Z,102355.34
2018-12-30T07:06:40.722Z,102354.39
2018-12-30T07:09:10.204Z,102343.74
2018-12-30T07:11:39.675Z,102350.73
2018-12-30T07:14:09.149Z,102291.55
2018-12-30T07:16:38.640Z,102351.13
2018-12-30T07:19:08.147Z,102360.03
2018-12-30T07:21:37.639Z,102362.34
2018-12-30T07:24:07.149Z,102360.70
2018-12-30T07:26:36.664Z,102358.89
2018-12-30T07:29:06.166Z,102363.55
2018-12-30T07:31:35.709Z,102363.50
2018-12-30T07:34:05.176Z,102362.89
2018-12-30T07:36:34.681Z,102371.30
2018-12-30T07:39:05.918Z,102372.59
2018-12-30T07:41:35.400Z,102371.12
2018-12-30T07:44:05.847Z,102365.91
2018-12-30T07:46:35.356Z,102369.64
2018-12-30T07:49:04.908Z,102368.63
2018-12-30T07:51:34.323Z,102381.48
2018-12-30T07:54:03.815Z,102374.33
2018-12-30T07:56:33.313Z,102376.71
2018-12-30T07:59:02.796Z,102397.20
2018-12-30T08:01:32.290Z,102390.16
2018-12-30T08:04:01.771Z,102389.63
2018-12-30T08:06:31.260Z,102391.05
2018-12-30T08:09:00.757Z,102393.71
2018-12-30T08:11:30.264Z,102394.16
2018-12-30T08:13:59.771Z,102395.38
2018-12-30T08:16:29.269Z,102397.77
2018-12-30T08:18:58.774Z,102407.30
2018-12-30T08:21:28.339Z,102403.95
2018-12-30T08:23:57.851Z,102404.73
2018-12-30T08:26:27.341Z,102398.03
2018-12-30T08:28:56.818Z,102406.15
2018-12-30T08:31:26.308Z,102402.31
2018-12-30T08:33:55.801Z,102402.57
2018-12-30T08:36:25.314Z,102409.98
2018-12-30T08:38:54.805Z,102412.87
2018-12-30T08:41:24.297Z,102413.59
2018-12-30T08:43:53.771Z,102409.52
2018-12-30T08:46:23.293Z,102405.95
2018-12-30T08:48:52.773Z,102406.53
2018-12-30T08:51:22.288Z,102404.75
2018-12-30T08:53:51.775Z,102416.87
2018-12-30T08:56:21.288Z,102422.28
2018-12-30T08:58:50.769Z,102428.66
2018-12-30T09:01:28.083Z,102431.83
2018-12-30T09:03:51.472Z,102423.02
2018-12-30T09:06:20.988Z,102430.88
2018-12-30T09:08:50.475Z,102425.08
2018-12-30T09:11:19.987Z,102422.99
2018-12-30T09:13:49.483Z,102425.95
2018-12-30T09:16:19.970Z,102426.03
2018-12-30T09:18:49.472Z,102424.66
2018-12-30T09:21:18.949Z,102414.05
2018-12-30T09:23:48.443Z,102412.32
2018-12-30T09:26:17.942Z,102418.61
2018-12-30T09:28:47.440Z,102419.29
2018-12-30T09:31:16.915Z,102350.86
2018-12-30T09:33:46.405Z,102418.29
2018-12-30T09:36:15.924Z,102415.89
2018-12-30T09:38:45.550Z,102411.73
2018-12-30T09:41:15.054Z,102421.53
2018-12-30T09:43:44.557Z,102416.39
2018-12-30T09:46:14.070Z,102411.47
2018-12-30T09:48:43.568Z,102421.05
2018-12-30T09:51:13.883Z,102420.75
2018-12-30T09:53:45.203Z,102420.75
2018-12-30T09:56:14.675Z,102419.77
2018-12-30T09:58:44.174Z,102434.86
2018-12-30T10:01:13.673Z,102419.29
2018-12-30T10:03:43.153Z,102426.72
2018-12-30T10:06:12.655Z,102432.00
2018-12-30T10:08:42.145Z,102419.23
2018-12-30T10:11:11.643Z,102426.08
2018-12-30T10:13:41.432Z,102416.63
2018-12-30T10:16:11.110Z,102423.08
2018-12-30T10:18:40.530Z,102433.88
2018-12-30T10:21:10.052Z,102432.80
2018-12-30T10:23:39.530Z,102433.81
2018-12-30T10:26:09.023Z,102425.30
2018-12-30T10:28:38.495Z,102433.27
2018-12-30T10:31:08.004Z,102428.70
2018-12-30T10:33:37.499Z,102427.64
2018-12-30T10:36:07.008Z,102428.88
2018-12-30T10:38:36.484Z,102440.74
2018-12-30T10:41:05.970Z,102437.73
2018-12-30T10:43:35.541Z,102435.18
2018-12-30T10:46:05.022Z,102424.98
2018-12-30T10:48:36.212Z,102421.09
2018-12-30T10:51:06.868Z,102420.05
2018-12-30T10:53:36.375Z,102426.08
2018-12-30T10:56:05.872Z,102425.30
2018-12-30T10:58:35.475Z,102417.72
2018-12-30T11:01:05.080Z,102420.51
2018-12-30T11:03:34.595Z,102423.05
2018-12-30T11:06:04.130Z,102416.73
2018-12-30T11:08:33.731Z,102413.53
2018-12-30T11:11:03.242Z,102410.28
2018-12-30T11:13:32.823Z,102407.16
2018-12-30T11:16:02.413Z,102416.59
2018-12-30T11:18:32.017Z,102414.53
2018-12-30T11:21:01.529Z,102343.46
2018-12-30T11:23:32.174Z,102413.34
2018-12-30T11:26:01.814Z,102423.30
2018-12-30T11:28:31.342Z,102422.59
2018-12-30T11:31:00.864Z,102419.52
2018-12-30T11:33:30.362Z,102424.58
2018-12-30T11:35:59.915Z,102411.72
2018-12-30T11:38:29.408Z,102419.87
2018-12-30T11:40:58.965Z,102422.99
2018-12-30T11:43:28.521Z,102420.63
2018-12-30T11:45:57.955Z,102422.34
2018-12-30T11:48:27.506Z,102420.17
2018-12-30T11:50:57.112Z,102414.62
2018-12-30T11:53:26.829Z,102413.09
2018-12-30T11:55:56.412Z,102414.50
2018-12-30T11:58:25.974Z,102414.33
2018-12-30T12:00:55.460Z,102411.65
2018-12-30T12:03:25.071Z,102418.38
2018-12-30T12:05:54.681Z,102416.75
2018-12-30T12:08:24.227Z,102415.55
2018-12-30T12:10:53.714Z,102421.53
2018-12-30T12:13:23.218Z,102420.05
2018-12-30T12:15:52.716Z,102421.09
2018-12-30T12:18:22.227Z,102424.92
2018-12-30T12:20:51.780Z,102421.76
2018-12-30T12:23:21.279Z,102424.44
2018-12-30T12:25:50.770Z,102431.36
2018-12-30T12:28:20.272Z,102427.95
2018-12-30T12:30:49.823Z,102434.22
2018-12-30T12:33:20.307Z,102434.78
2018-12-30T12:35:49.842Z,102422.72
2018-12-30T12:38:19.385Z,102424.18
2018-12-30T12:40:48.967Z,102430.73
2018-12-30T12:43:18.481Z,102432.45
2018-12-30T12:45:48.015Z,102432.89
2018-12-30T12:48:17.569Z,102427.64
2018-12-30T12:50:47.064Z,102434.27
2018-12-30T12:53:16.581Z,102432.07
2018-12-30T12:55:46.173Z,102443.50
2018-12-30T12:58:15.621Z,102444.37
2018-12-30T13:00:45.107Z,102455.06
2018-12-30T13:03:14.647Z,102457.62
2018-12-30T13:05:44.154Z,102455.77
2018-12-30T13:08:14.629Z,102441.59
2018-12-30T13:10:44.126Z,102441.59
2018-12-30T13:13:13.633Z,102451.77
2018-12-30T13:15:43.112Z,102462.67
2018-12-30T13:18:12.621Z,102463.52
2018-12-30T13:20:42.117Z,102466.72
2018-12-30T13:23:11.596Z,102470.46
2018-12-30T13:25:41.090Z,102467.29
2018-12-30T13:28:10.612Z,102461.70
2018-12-30T13:30:40.101Z,102455.11
2018-12-30T13:33:09.864Z,102440.42
2018-12-30T13:35:43.356Z,102443.66
2018-12-30T13:38:10.637Z,102444.33
2018-12-30T13:40:40.164Z,102439.22
2018-12-30T13:43:09.669Z,102449.95
2018-12-30T13:45:39.214Z,102451.28
2018-12-30T13:48:08.724Z,102451.02
2018-12-30T13:50:38.292Z,102452.38
2018-12-30T13:53:07.836Z,102451.33
2018-12-30T13:55:37.442Z,102453.87
2018-12-30T13:58:07.052Z,102454.16
2018-12-30T14:00:36.556Z,102454.98
2018-12-30T14:03:06.057Z,102463.12
2018-12-30T14:05:35.581Z,102477.28
2018-12-30T14:08:05.097Z,102490.70
2018-12-30T14:10:35.612Z,102480.45
2018-12-30T14:13:05.091Z,102461.78
2018-12-30T14:15:34.624Z,102448.30
2018-12-30T14:18:04.104Z,102440.23
2018-12-30T14:20:33.600Z,102425.32
2018-12-30T14:23:03.092Z,102422.59
2018-12-30T14:25:32.588Z,102426.16
2018-12-30T14:28:02.104Z,102431.22
2018-12-30T14:30:32.535Z,102422.72
2018-12-30T14:33:02.016Z,102427.66
2018-12-30T14:35:31.503Z,102420.13
2018-12-30T14:38:00.983Z,102414.31
2018-12-30T14:40:30.484Z,102416.70
2018-12-30T14:42:59.983Z,102415.61
2018-12-30T14:45:29.484Z,102417.23
2018-12-30T14:47:58.991Z,102416.39
2018-12-30T14:50:28.517Z,102419.08
2018-12-30T14:52:58.035Z,102419.48
2018-12-30T14:55:27.525Z,102404.78
2018-12-30T14:57:57.005Z,102420.09
2018-12-30T15:00:26.508Z,102428.72
2018-12-30T15:02:56.016Z,102435.17
2018-12-30T15:05:25.502Z,102444.73
2018-12-30T15:07:55.008Z,102451.53
2018-12-30T15:10:24.546Z,102461.62
2018-12-30T15:12:54.050Z,102445.19
2018-12-30T15:15:23.558Z,102434.13
2018-12-30T15:17:53.036Z,102437.56
2018-12-30T15:20:22.527Z,102451.13
2018-12-30T15:22:52.094Z,102458.92
2018-12-30T15:25:22.546Z,102464.31
2018-12-30T15:27:52.124Z,102475.97
2018-12-30T15:30:21.658Z,102481.52
2018-12-30T15:32:51.138Z,102483.05
2018-12-30T15:35:20.650Z,102493.66
2018-12-30T15:37:50.178Z,102499.77
2018-12-30T15:40:19.690Z,102495.56
2018-12-30T15:42:49.188Z,102505.59
2018-12-30T15:45:18.710Z,102510.36
2018-12-30T15:47:48.264Z,102401.58
2018-12-30T15:50:17.755Z,102499.33
2018-12-30T15:52:47.258Z,102490.39
2018-12-30T15:55:19.598Z,102483.70
2018-12-30T15:57:49.032Z,102496.64
2018-12-30T16:00:18.548Z,102497.97
2018-12-30T16:02:48.032Z,102510.67
2018-12-30T16:05:17.552Z,102510.41
2018-12-30T16:07:47.996Z,102511.34
2018-12-30T16:10:17.494Z,102510.38
2018-12-30T16:12:46.989Z,102507.16
2018-12-30T16:15:16.497Z,102494.80
2018-12-30T16:17:46.082Z,102494.53
2018-12-30T16:20:15.521Z,102493.44
2018-12-30T16:22:45.022Z,102489.38
2018-12-30T16:25:14.504Z,102492.55
2018-12-30T16:27:44.119Z,102499.89
2018-12-30T16:30:13.671Z,102495.98
2018-12-30T16:32:43.168Z,102498.63
2018-12-30T16:35:12.670Z,102490.70
2018-12-30T16:37:42.183Z,102494.71
2018-12-30T16:40:11.660Z,102497.53
2018-12-30T16:42:41.162Z,102490.18
2018-12-30T16:45:10.685Z,102495.72
2018-12-30T16:47:42.040Z,102508.34
2018-12-30T16:50:11.412Z,102507.82
2018-12-30T16:52:40.920Z,102518.58
2018-12-30T16:55:10.428Z,102524.40
2018-12-30T16:57:39.942Z,102521.20
2018-12-30T17:00:10.140Z,102526.30
2018-12-30T17:02:39.621Z,102524.08
2018-12-30T17:05:10.104Z,102522.91
2018-12-30T17:07:39.606Z,102513.81
2018-12-30T17:10:09.692Z,102511.41
2018-12-30T17:12:39.203Z,102508.12
2018-12-30T17:15:08.957Z,102503.41
2018-12-30T17:17:38.449Z,102503.27
2018-12-30T17:20:08.074Z,102506.75
2018-12-30T17:22:37.619Z,102502.62
2018-12-30T17:25:08.439Z,102507.27
2018-12-30T17:27:37.947Z,102513.48
2018-12-30T17:30:09.225Z,102517.45
2018-12-30T17:32:38.754Z,102523.03
2018-12-30T17:35:08.316Z,102520.53
2018-12-30T17:37:37.826Z,102524.36
2018-12-30T17:40:07.749Z,102531.84
2018-12-30T17:42:37.333Z,102543.34
2018-12-30T17:45:07.071Z,102543.88
2018-12-30T17:47:36.577Z,102545.23
2018-12-30T17:50:07.856Z,102535.33
2018-12-30T17:52:37.345Z,102535.56
2018-12-30T17:55:06.835Z,102524.95
2018-12-30T17:57:36.351Z,102534.36
2018-12-30T18:00:06.482Z,102551.13
2018-12-30T18:02:36.459Z,102537.54
2018-12-30T18:05:07.339Z,102554.08
2018-12-30T18:07:36.839Z,102559.41
2018-12-30T18:10:06.847Z,102556.41
2018-12-30T18:12:36.349Z,102558.56
2018-12-30T18:15:07.199Z,102560.97
2018-12-30T18:17:41.346Z,102568.46
2018-12-30T18:20:07.906Z,102575.17
2018-12-30T18:22:37.396Z,102571.09
2018-12-30T18:25:07.211Z,102569.84
2018-12-30T18:27:36.718Z,102572.14
2018-12-30T18:30:06.584Z,102569.03
2018-12-30T18:32:36.904Z,102573.42
2018-12-30T18:35:06.462Z,102561.94
2018-12-30T18:37:35.966Z,102564.88
2018-12-30T18:40:05.741Z,102568.81
2018-12-30T18:42:35.254Z,102572.72
2018-12-30T18:45:05.375Z,102578.45
2018-12-30T18:47:34.876Z,102572.37
2018-12-30T18:50:05.115Z,102567.60
2018-12-30T18:52:34.617Z,102568.89
2018-12-30T19:09:10.930Z,102546.58
2018-12-30T19:11:41.150Z,102537.26
2018-12-30T19:14:10.652Z,102506.78
2018-12-30T19:16:40.144Z,102529.97
2018-12-30T19:19:09.658Z,102531.56
2018-12-30T19:21:39.159Z,102530.03
2018-12-30T19:24:08.638Z,102525.02
2018-12-30T19:26:38.118Z,102518.47
2018-12-30T19:29:07.599Z,102512.66
2018-12-30T19:31:37.087Z,102515.38
2018-12-30T19:34:06.614Z,102518.95
2018-12-30T19:36:36.114Z,102515.91
2018-12-30T19:39:07.019Z,102514.75
2018-12-30T19:41:36.516Z,102517.95
2018-12-30T19:44:06.009Z,102516.42
2018-12-30T19:46:35.501Z,102520.08
2018-12-30T19:49:04.998Z,102527.09
2018-12-30T19:51:34.479Z,102532.05
2018-12-30T19:54:04.000Z,102524.63
2018-12-30T19:56:33.480Z,102530.83
2018-12-30T19:59:03.589Z,102525.02
2018-12-30T20:01:33.087Z,102523.31
2018-12-30T20:04:02.673Z,102509.36
2018-12-30T20:06:32.174Z,102515.13
2018-12-30T20:09:02.394Z,102507.12
2018-12-30T20:11:31.968Z,102507.82
2018-12-30T20:14:01.493Z,102516.09
2018-12-30T20:16:31.011Z,102509.45
2018-12-30T20:19:00.622Z,102501.97
2018-12-30T20:21:30.142Z,102502.20
2018-12-30T20:24:00.676Z,102497.39
2018-12-30T20:26:30.265Z,102499.20
2018-12-30T20:28:59.685Z,102503.30
2018-12-30T20:31:29.166Z,102499.46
2018-12-30T20:33:58.670Z,102505.66
2018-12-30T20:36:28.181Z,102508.05
2018-12-30T20:38:58.584Z,102503.91
2018-12-30T20:41:28.046Z,102496.95
2018-12-30T20:43:57.551Z,102498.05
2018-12-30T20:46:27.071Z,102506.23
2018-12-30T20:48:57.561Z,102500.83
2018-12-30T20:51:27.066Z,102505.67
2018-12-30T20:53:56.569Z,102497.70
2018-12-30T20:56:26.072Z,102491.94
2018-12-30T20:58:55.561Z,102490.35
2018-12-30T21:01:25.076Z,102493.39
2018-12-30T21:03:54.592Z,102499.77
2018-12-30T21:06:24.453Z,102499.37
2018-12-30T21:08:53.944Z,102474.52
2018-12-30T21:11:23.459Z,102492.52
2018-12-30T21:13:52.947Z,102490.61
2018-12-30T21:16:22.448Z,102490.75
2018-12-30T21:18:51.960Z,102497.79
2018-12-30T21:21:21.476Z,102507.12
2018-12-30T21:23:50.952Z,102502.67
2018-12-30T21:26:20.483Z,102507.55
2018-12-30T21:28:50.013Z,102501.34
2018-12-30T21:31:19.526Z,102500.60
2018-12-30T21:33:49.016Z,102505.00
2018-12-30T21:36:18.507Z,102507.24
2018-12-30T21:38:47.998Z,102507.64
2018-12-30T21:41:17.483Z,102497.43
2018-12-30T21:43:46.984Z,102495.39
2018-12-30T21:46:16.491Z,102490.91
2018-12-30T21:48:46.001Z,102482.30
2018-12-30T21:51:15.566Z,102489.64
2018-12-30T21:53:45.100Z,102482.91
2018-12-30T21:56:14.616Z,102479.25
2018-12-30T21:58:44.129Z,102476.53
2018-12-30T22:01:13.646Z,102472.48
2018-12-30T22:03:43.168Z,102474.52
2018-12-30T22:06:12.763Z,102485.36
2018-12-30T22:08:42.267Z,102483.61
2018-12-30T22:11:11.797Z,102487.82
2018-12-30T22:13:41.324Z,102483.94
2018-12-30T22:16:10.852Z,102478.34
2018-12-30T22:18:40.367Z,102468.23
2018-12-30T22:21:09.898Z,102467.02
2018-12-30T22:23:39.422Z,102473.25
2018-12-30T22:26:08.966Z,102475.06
2018-12-30T22:28:38.478Z,102480.11
2018-12-30T22:31:08.015Z,102480.02
2018-12-30T22:33:37.529Z,102484.70
2018-12-30T22:36:07.066Z,102494.66
2018-12-30T22:38:36.639Z,102496.78
2018-12-30T22:41:06.171Z,102489.61
2018-12-30T22:43:35.693Z,102495.28
2018-12-30T22:46:05.197Z,102492.86
2018-12-30T22:48:34.720Z,102495.98
2018-12-30T22:51:04.216Z,102499.64
2018-12-30T22:53:33.714Z,102500.43
2018-12-30T22:56:03.236Z,102505.76
2018-12-30T22:58:33.187Z,102505.05
2018-12-30T23:01:09.360Z,102506.67
2018-12-30T23:03:38.857Z,102509.45
2018-12-30T23:06:09.395Z,102509.53
2018-12-30T23:08:38.893Z,102432.12
2018-12-30T23:11:08.443Z,102493.34
2018-12-30T23:13:37.977Z,102496.91
2018-12-30T23:16:07.495Z,102494.53
2018-12-30T23:18:37.004Z,102495.95
2018-12-30T23:21:06.518Z,102493.91
2018-12-30T23:23:36.036Z,102494.05
2018-12-30T23:26:05.549Z,102499.50
2018-12-30T23:28:35.061Z,102493.56
2018-12-30T23:31:04.595Z,102490.87
2018-12-30T23:33:34.085Z,102491.72
2018-12-30T23:36:03.582Z,102490.36
2018-12-30T23:38:33.083Z,102487.63
2018-12-30T23:41:02.717Z,102490.36
2018-12-30T23:43:32.232Z,102481.86
2018-12-30T23:46:01.764Z,102475.05
2018-12-30T23:48:31.258Z,102470.59
2018-12-30T23:51:00.760Z,102472.97
2018-12-30T23:53:30.279Z,102470.47
2018-12-30T23:55:59.777Z,102471.78
2018-12-30T23:58:29.272Z,102472.97
